sensor_id;sensor_type;location;lat;lon;timestamp;pressure;altitude;pressure_sealevel;temperature;humidity
76732;BME280;65656;51.130;13.658;2024-01-11T00:03:41;100556.84;;;-8.58;100.00
76732;BME280;65656;51.130;13.658;2024-01-11T00:07:43;100551.31;;;-8.67;100.00
76732;BME280;65656;51.130;13.658;2024-01-11T00:11:45;100556.13;;;-8.60;100.00
76732;BME280;65656;51.130;13.658;2024-01-11T00:15:47;100557.16;;;-8.35;100.00
76732;BME280;65656;51.130;13.658;2024-01-11T00:19:50;100556.72;;;-8.29;100.00
76732;BME280;65656;51.130;13.658;2024-01-11T00:23:52;100547.38;;;-8.22;100.00
76732;BME280;65656;51.130;13.658;2024-01-11T00:27:55;100545.03;;;-8.39;100.00
76732;BME280;65656;51.130;13.658;2024-01-11T00:31:57;100529.50;;;-8.46;100.00
76732;BME280;65656;51.130;13.658;2024-01-11T00:36:01;100530.56;;;-8.35;100.00
76732;BME280;65656;51.130;13.658;2024-01-11T00:40:04;100533.50;;;-8.53;100.00
76732;BME280;65656;51.130;13.658;2024-01-11T00:44:06;100526.09;;;-8.75;100.00
76732;BME280;65656;51.130;13.658;2024-01-11T00:48:08;100533.13;;;-8.88;100.00
76732;BME280;65656;51.130;13.658;2024-01-11T00:52:12;100528.91;;;-8.63;100.00
76732;BME280;65656;51.130;13.658;2024-01-11T00:56:17;100519.41;;;-8.67;100.00
76732;BME280;65656;51.130;13.658;2024-01-11T01:00:20;100505.69;;;-8.47;100.00
76732;BME280;65656;51.130;13.658;2024-01-11T01:04:22;100499.28;;;-8.45;100.00
76732;BME280;65656;51.130;13.658;2024-01-11T01:08:25;100477.38;;;-8.61;100.00
76732;BME280;65656;51.130;13.658;2024-01-11T01:12:27;100489.97;;;-8.64;100.00
76732;BME280;65656;51.130;13.658;2024-01-11T01:16:29;100490.50;;;-8.72;100.00
76732;BME280;65656;51.130;13.658;2024-01-11T01:20:32;100500.88;;;-9.09;100.00
76732;BME280;65656;51.130;13.658;2024-01-11T01:24:35;100506.81;;;-9.32;100.00
76732;BME280;65656;51.130;13.658;2024-01-11T01:28:38;100529.19;;;-9.79;100.00
76732;BME280;65656;51.130;13.658;2024-01-11T01:32:40;100530.00;;;-9.93;100.00
76732;BME280;65656;51.130;13.658;2024-01-11T01:36:42;100529.09;;;-10.22;100.00
76732;BME280;65656;51.130;13.658;2024-01-11T01:40:45;100532.94;;;-10.26;100.00
76732;BME280;65656;51.130;13.658;2024-01-11T01:44:48;100536.44;;;-10.25;100.00
76732;BME280;65656;51.130;13.658;2024-01-11T01:48:50;100521.84;;;-10.18;100.00
76732;BME280;65656;51.130;13.658;2024-01-11T01:52:55;100518.56;;;-9.93;100.00
76732;BME280;65656;51.130;13.658;2024-01-11T01:56:59;100505.50;;;-9.68;100.00
76732;BME280;65656;51.130;13.658;2024-01-11T02:01:02;100523.31;;;-9.70;100.00
76732;BME280;65656;51.130;13.658;2024-01-11T02:05:05;100529.75;;;-9.88;100.00
76732;BME280;65656;51.130;13.658;2024-01-11T02:09:10;100522.19;;;-9.80;100.00
76732;BME280;65656;51.130;13.658;2024-01-11T02:13:14;100513.81;;;-9.60;100.00
76732;BME280;65656;51.130;13.658;2024-01-11T02:17:17;100511.91;;;-9.43;100.00
76732;BME280;65656;51.130;13.658;2024-01-11T02:21:19;100527.47;;;-9.51;100.00
76732;BME280;65656;51.130;13.658;2024-01-11T02:25:24;100527.66;;;-9.69;100.00
76732;BME280;65656;51.130;13.658;2024-01-11T02:29:25;100534.09;;;-9.73;100.00
76732;BME280;65656;51.130;13.658;2024-01-11T02:33:27;100529.16;;;-9.50;100.00
76732;BME280;65656;51.130;13.658;2024-01-11T02:37:30;100536.94;;;-9.47;100.00
76732;BME280;65656;51.130;13.658;2024-01-11T02:41:34;100543.00;;;-9.45;100.00
76732;BME280;65656;51.130;13.658;2024-01-11T02:45:37;100551.81;;;-9.45;100.00
76732;BME280;65656;51.130;13.658;2024-01-11T02:49:39;100548.31;;;-9.45;100.00
76732;BME280;65656;51.130;13.658;2024-01-11T02:53:41;100558.88;;;-10.02;100.00
76732;BME280;65656;51.130;13.658;2024-01-11T02:57:45;100545.25;;;-9.82;100.00
76732;BME280;65656;51.130;13.658;2024-01-11T03:01:47;100540.81;;;-9.67;100.00
76732;BME280;65656;51.130;13.658;2024-01-11T03:05:49;100537.81;;;-9.61;100.00
76732;BME280;65656;51.130;13.658;2024-01-11T03:09:51;100547.66;;;-9.49;100.00
76732;BME280;65656;51.130;13.658;2024-01-11T03:13:55;100537.06;;;-9.49;100.00
76732;BME280;65656;51.130;13.658;2024-01-11T03:17:57;100538.66;;;-9.32;100.00
76732;BME280;65656;51.130;13.658;2024-01-11T03:21:59;100528.78;;;-9.44;100.00
76732;BME280;65656;51.130;13.658;2024-01-11T03:26:01;100525.00;;;-9.55;100.00
76732;BME280;65656;51.130;13.658;2024-01-11T03:30:06;100523.47;;;-9.44;100.00
76732;BME280;65656;51.130;13.658;2024-01-11T03:34:09;100501.72;;;-9.64;100.00
76732;BME280;65656;51.130;13.658;2024-01-11T03:38:11;100485.22;;;-9.69;100.00
76732;BME280;65656;51.130;13.658;2024-01-11T03:42:13;100475.56;;;-9.70;100.00
76732;BME280;65656;51.130;13.658;2024-01-11T03:46:16;100464.38;;;-9.61;100.00
76732;BME280;65656;51.130;13.658;2024-01-11T03:50:18;100466.19;;;-9.75;100.00
76732;BME280;65656;51.130;13.658;2024-01-11T03:54:20;100465.22;;;-9.89;100.00
76732;BME280;65656;51.130;13.658;2024-01-11T03:58:22;100468.75;;;-9.74;100.00
76732;BME280;65656;51.130;13.658;2024-01-11T04:02:26;100490.31;;;-10.37;100.00
76732;BME280;65656;51.130;13.658;2024-01-11T04:06:29;100503.41;;;-10.80;100.00
76732;BME280;65656;51.130;13.658;2024-01-11T04:10:31;100488.19;;;-10.76;100.00
76732;BME280;65656;51.130;13.658;2024-01-11T04:14:33;100473.44;;;-10.50;100.00
76732;BME280;65656;51.130;13.658;2024-01-11T04:18:37;100515.19;;;-10.85;100.00
76732;BME280;65656;51.130;13.658;2024-01-11T04:22:39;100520.31;;;-10.82;100.00
76732;BME280;65656;51.130;13.658;2024-01-11T04:26:41;100528.75;;;-10.76;100.00
76732;BME280;65656;51.130;13.658;2024-01-11T04:30:43;100547.31;;;-11.07;100.00
76732;BME280;65656;51.130;13.658;2024-01-11T04:34:47;100537.56;;;-10.91;100.00
76732;BME280;65656;51.130;13.658;2024-01-11T04:38:49;100534.25;;;-10.79;100.00
76732;BME280;65656;51.130;13.658;2024-01-11T04:42:51;100543.63;;;-10.43;100.00
76732;BME280;65656;51.130;13.658;2024-01-11T04:46:53;100556.34;;;-10.64;100.00
76732;BME280;65656;51.130;13.658;2024-01-11T04:50:57;100555.13;;;-10.58;100.00
76732;BME280;65656;51.130;13.658;2024-01-11T04:54:59;100547.09;;;-10.13;100.00
76732;BME280;65656;51.130;13.658;2024-01-11T04:59:02;100553.59;;;-10.02;100.00
76732;BME280;65656;51.130;13.658;2024-01-11T05:03:04;100537.47;;;-9.99;100.00
76732;BME280;65656;51.130;13.658;2024-01-11T05:07:08;100512.09;;;-10.18;100.00
76732;BME280;65656;51.130;13.658;2024-01-11T05:11:15;100511.78;;;-10.27;100.00
76732;BME280;65656;51.130;13.658;2024-01-11T05:15:17;100512.75;;;-10.14;100.00
76732;BME280;65656;51.130;13.658;2024-01-11T05:19:20;100512.59;;;-10.11;100.00
76732;BME280;65656;51.130;13.658;2024-01-11T05:23:23;100523.09;;;-10.24;100.00
76732;BME280;65656;51.130;13.658;2024-01-11T05:27:25;100505.66;;;-10.28;100.00
76732;BME280;65656;51.130;13.658;2024-01-11T05:31:28;100506.03;;;-10.34;100.00
76732;BME280;65656;51.130;13.658;2024-01-11T05:35:30;100517.09;;;-10.27;100.00
76732;BME280;65656;51.130;13.658;2024-01-11T05:39:33;100505.47;;;-10.25;100.00
76732;BME280;65656;51.130;13.658;2024-01-11T05:43:37;100529.28;;;-10.39;100.00
76732;BME280;65656;51.130;13.658;2024-01-11T05:47:39;100532.03;;;-10.41;100.00
76732;BME280;65656;51.130;13.658;2024-01-11T05:51:42;100530.94;;;-10.22;100.00
76732;BME280;65656;51.130;13.658;2024-01-11T05:55:45;100552.53;;;-10.44;100.00
76732;BME280;65656;51.130;13.658;2024-01-11T05:59:48;100547.06;;;-10.41;100.00
76732;BME280;65656;51.130;13.658;2024-01-11T06:03:50;100536.88;;;-10.63;100.00
76732;BME280;65656;51.130;13.658;2024-01-11T06:07:52;100540.38;;;-10.62;100.00
76732;BME280;65656;51.130;13.658;2024-01-11T06:11:56;100548.50;;;-10.65;100.00
76732;BME280;65656;51.130;13.658;2024-01-11T06:15:58;100552.25;;;-10.70;100.00
76732;BME280;65656;51.130;13.658;2024-01-11T06:20:00;100559.38;;;-10.40;100.00
76732;BME280;65656;51.130;13.658;2024-01-11T06:24:02;100553.34;;;-10.28;100.00
76732;BME280;65656;51.130;13.658;2024-01-11T06:28:06;100557.19;;;-10.03;100.00
76732;BME280;65656;51.130;13.658;2024-01-11T06:32:09;100544.78;;;-10.03;100.00
76732;BME280;65656;51.130;13.658;2024-01-11T06:36:11;100543.91;;;-9.89;100.00
76732;BME280;65656;51.130;13.658;2024-01-11T06:40:14;100514.22;;;-9.94;100.00
76732;BME280;65656;51.130;13.658;2024-01-11T06:44:18;100527.84;;;-9.86;100.00
76732;BME280;65656;51.130;13.658;2024-01-11T06:48:20;100489.56;;;-9.96;100.00
76732;BME280;65656;51.130;13.658;2024-01-11T06:52:23;100500.97;;;-9.80;100.00
76732;BME280;65656;51.130;13.658;2024-01-11T06:56:25;100480.88;;;-9.70;100.00
76732;BME280;65656;51.130;13.658;2024-01-11T07:00:29;100490.53;;;-9.55;100.00
76732;BME280;65656;51.130;13.658;2024-01-11T07:04:31;100472.31;;;-9.46;100.00
76732;BME280;65656;51.130;13.658;2024-01-11T07:08:36;100473.19;;;-9.46;100.00
76732;BME280;65656;51.130;13.658;2024-01-11T07:12:38;100487.75;;;-9.39;100.00
76732;BME280;65656;51.130;13.658;2024-01-11T07:16:42;100493.06;;;-9.39;100.00
76732;BME280;65656;51.130;13.658;2024-01-11T07:20:44;100491.72;;;-9.32;100.00
76732;BME280;65656;51.130;13.658;2024-01-11T07:24:46;100490.41;;;-9.39;100.00
76732;BME280;65656;51.130;13.658;2024-01-11T07:28:48;100478.56;;;-9.33;100.00
76732;BME280;65656;51.130;13.658;2024-01-11T07:32:51;100490.47;;;-9.26;100.00
76732;BME280;65656;51.130;13.658;2024-01-11T07:36:54;100491.16;;;-8.95;100.00
76732;BME280;65656;51.130;13.658;2024-01-11T07:40:56;100494.53;;;-8.79;100.00
76732;BME280;65656;51.130;13.658;2024-01-11T07:44:59;100483.91;;;-8.79;100.00
76732;BME280;65656;51.130;13.658;2024-01-11T07:49:02;100482.72;;;-8.35;100.00
76732;BME280;65656;51.130;13.658;2024-01-11T07:53:05;100479.09;;;-8.22;100.00
76732;BME280;65656;51.130;13.658;2024-01-11T07:57:07;100497.50;;;-8.31;100.00
76732;BME280;65656;51.130;13.658;2024-01-11T08:01:09;100507.53;;;-8.62;100.00
76732;BME280;65656;51.130;13.658;2024-01-11T08:05:13;100521.28;;;-8.82;100.00
76732;BME280;65656;51.130;13.658;2024-01-11T08:09:15;100541.53;;;-8.67;100.00
76732;BME280;65656;51.130;13.658;2024-01-11T08:13:18;100502.59;;;-8.28;100.00
76732;BME280;65656;51.130;13.658;2024-01-11T08:17:20;100500.38;;;-7.96;100.00
76732;BME280;65656;51.130;13.658;2024-01-11T08:21:24;100517.19;;;-7.96;100.00
76732;BME280;65656;51.130;13.658;2024-01-11T08:25:26;100515.81;;;-7.63;100.00
76732;BME280;65656;51.130;13.658;2024-01-11T08:29:28;100512.94;;;-7.60;100.00
76732;BME280;65656;51.130;13.658;2024-01-11T08:33:31;100517.50;;;-7.37;100.00
76732;BME280;65656;51.130;13.658;2024-01-11T08:37:36;100521.06;;;-7.12;100.00
76732;BME280;65656;51.130;13.658;2024-01-11T08:41:38;100500.41;;;-6.85;100.00
76732;BME280;65656;51.130;13.658;2024-01-11T08:45:40;100496.69;;;-6.58;100.00
76732;BME280;65656;51.130;13.658;2024-01-11T08:49:42;100518.59;;;-6.79;100.00
76732;BME280;65656;51.130;13.658;2024-01-11T08:53:46;100511.66;;;-6.68;100.00
76732;BME280;65656;51.130;13.658;2024-01-11T08:57:48;100504.88;;;-6.85;100.00
76732;BME280;65656;51.130;13.658;2024-01-11T09:01:50;100497.84;;;-6.86;100.00
76732;BME280;65656;51.130;13.658;2024-01-11T09:06:07;100502.78;;;-6.93;100.00
76732;BME280;65656;51.130;13.658;2024-01-11T09:10:12;100509.19;;;-6.95;100.00
76732;BME280;65656;51.130;13.658;2024-01-11T09:14:15;100509.84;;;-6.92;100.00
76732;BME280;65656;51.130;13.658;2024-01-11T09:18:17;100514.22;;;-6.67;100.00
76732;BME280;65656;51.130;13.658;2024-01-11T09:22:20;100504.56;;;-6.57;100.00
76732;BME280;65656;51.130;13.658;2024-01-11T09:26:23;100518.97;;;-6.24;100.00
76732;BME280;65656;51.130;13.658;2024-01-11T09:30:26;100509.44;;;-6.15;100.00
76732;BME280;65656;51.130;13.658;2024-01-11T09:34:28;100510.22;;;-5.80;100.00
76732;BME280;65656;51.130;13.658;2024-01-11T09:38:31;100520.66;;;-5.77;100.00
76732;BME280;65656;51.130;13.658;2024-01-11T09:42:35;100547.25;;;-5.53;100.00
76732;BME280;65656;51.130;13.658;2024-01-11T09:46:37;100532.00;;;-5.28;100.00
76732;BME280;65656;51.130;13.658;2024-01-11T09:50:39;100526.50;;;-4.93;100.00
76732;BME280;65656;51.130;13.658;2024-01-11T09:54:42;100525.06;;;-5.31;100.00
76732;BME280;65656;51.130;13.658;2024-01-11T09:58:46;100506.25;;;-5.41;100.00
76732;BME280;65656;51.130;13.658;2024-01-11T10:02:49;100499.81;;;-5.27;100.00
76732;BME280;65656;51.130;13.658;2024-01-11T10:06:52;100487.56;;;-5.41;100.00
76732;BME280;65656;51.130;13.658;2024-01-11T10:10:55;100490.34;;;-5.42;100.00
76732;BME280;65656;51.130;13.658;2024-01-11T10:15:06;100493.59;;;-5.61;100.00
76732;BME280;65656;51.130;13.658;2024-01-11T10:19:09;100489.72;;;-5.79;100.00
76732;BME280;65656;51.130;13.658;2024-01-11T10:23:11;100484.38;;;-5.79;100.00
76732;BME280;65656;51.130;13.658;2024-01-11T10:27:14;100470.19;;;-5.69;100.00
76732;BME280;65656;51.130;13.658;2024-01-11T10:31:21;100469.22;;;-5.56;100.00
76732;BME280;65656;51.130;13.658;2024-01-11T10:35:23;100476.75;;;-5.39;100.00
76732;BME280;65656;51.130;13.658;2024-01-11T10:39:26;100472.72;;;-5.11;100.00
76732;BME280;65656;51.130;13.658;2024-01-11T10:43:29;100457.00;;;-4.93;100.00
76732;BME280;65656;51.130;13.658;2024-01-11T10:47:35;100445.75;;;-4.76;100.00
76732;BME280;65656;51.130;13.658;2024-01-11T10:51:42;100461.78;;;-4.65;100.00
76732;BME280;65656;51.130;13.658;2024-01-11T10:55:46;100458.75;;;-4.39;98.44
76732;BME280;65656;51.130;13.658;2024-01-11T10:59:50;100458.03;;;-4.41;97.25
76732;BME280;65656;51.130;13.658;2024-01-11T11:03:55;100440.59;;;-4.36;97.15
76732;BME280;65656;51.130;13.658;2024-01-11T11:08:01;100440.88;;;-4.18;94.89
76732;BME280;65656;51.130;13.658;2024-01-11T11:12:05;100457.38;;;-4.13;94.59
76732;BME280;65656;51.130;13.658;2024-01-11T11:16:08;100435.56;;;-3.87;91.91
76732;BME280;65656;51.130;13.658;2024-01-11T11:20:12;100433.59;;;-3.85;91.11
76732;BME280;65656;51.130;13.658;2024-01-11T11:24:16;100424.09;;;-3.69;90.36
76732;BME280;65656;51.130;13.658;2024-01-11T11:28:18;100404.69;;;-3.61;88.95
76732;BME280;65656;51.130;13.658;2024-01-11T11:32:35;100400.28;;;-3.12;86.83
76732;BME280;65656;51.130;13.658;2024-01-11T11:36:39;100395.22;;;-3.05;83.78
76732;BME280;65656;51.130;13.658;2024-01-11T11:40:42;100416.97;;;-2.99;83.24
76732;BME280;65656;51.130;13.658;2024-01-11T11:44:48;100409.50;;;-2.86;83.04
76732;BME280;65656;51.130;13.658;2024-01-11T11:48:51;100398.09;;;-2.68;81.78
76732;BME280;65656;51.130;13.658;2024-01-11T11:52:56;100413.31;;;-2.59;79.19
76732;BME280;65656;51.130;13.658;2024-01-11T11:56:58;100420.66;;;-2.81;78.83
76732;BME280;65656;51.130;13.658;2024-01-11T12:01:02;100414.44;;;-2.91;81.15
76732;BME280;65656;51.130;13.658;2024-01-11T12:05:05;100406.53;;;-2.92;81.72
76732;BME280;65656;51.130;13.658;2024-01-11T12:09:09;100395.41;;;-2.88;81.54
76732;BME280;65656;51.130;13.658;2024-01-11T12:13:12;100406.00;;;-2.76;82.60
76732;BME280;65656;51.130;13.658;2024-01-11T12:17:14;100393.84;;;-2.61;82.12
76732;BME280;65656;51.130;13.658;2024-01-11T12:21:16;100394.13;;;-2.45;78.59
76732;BME280;65656;51.130;13.658;2024-01-11T12:25:20;100381.41;;;-2.53;78.00
76732;BME280;65656;51.130;13.658;2024-01-11T12:29:23;100372.47;;;-2.24;79.59
76732;BME280;65656;51.130;13.658;2024-01-11T12:33:26;100374.91;;;-2.31;77.95
76732;BME280;65656;51.130;13.658;2024-01-11T12:37:30;100381.31;;;-2.04;76.18
76732;BME280;65656;51.130;13.658;2024-01-11T12:41:34;100368.41;;;-2.38;76.79
76732;BME280;65656;51.130;13.658;2024-01-11T12:45:37;100366.75;;;-2.77;77.76
76732;BME280;65656;51.130;13.658;2024-01-11T12:49:43;100361.38;;;-2.77;77.55
76732;BME280;65656;51.130;13.658;2024-01-11T12:53:46;100352.31;;;-2.57;77.24
76732;BME280;65656;51.130;13.658;2024-01-11T12:57:49;100360.22;;;-2.65;75.10
76732;BME280;65656;51.130;13.658;2024-01-11T13:01:52;100376.63;;;-2.49;75.76
76732;BME280;65656;51.130;13.658;2024-01-11T13:05:54;100381.72;;;-2.56;76.05
76732;BME280;65656;51.130;13.658;2024-01-11T13:09:57;100381.69;;;-2.65;77.21
76732;BME280;65656;51.130;13.658;2024-01-11T13:14:01;100375.19;;;-2.72;76.82
76732;BME280;65656;51.130;13.658;2024-01-11T13:18:03;100368.44;;;-2.67;77.52
76732;BME280;65656;51.130;13.658;2024-01-11T13:22:06;100378.03;;;-2.84;77.97
76732;BME280;65656;51.130;13.658;2024-01-11T13:26:08;100366.75;;;-2.87;77.06
76732;BME280;65656;51.130;13.658;2024-01-11T13:30:12;100342.47;;;-2.86;78.92
76732;BME280;65656;51.130;13.658;2024-01-11T13:34:15;100338.09;;;-2.87;77.69
76732;BME280;65656;51.130;13.658;2024-01-11T13:38:17;100344.91;;;-2.16;73.55
76732;BME280;65656;51.130;13.658;2024-01-11T13:42:23;100366.66;;;-1.45;69.46
76732;BME280;65656;51.130;13.658;2024-01-11T13:46:27;100378.56;;;-1.02;67.07
76732;BME280;65656;51.130;13.658;2024-01-11T13:50:29;100382.91;;;-1.37;69.38
76732;BME280;65656;51.130;13.658;2024-01-11T13:54:32;100369.19;;;-2.08;71.94
76732;BME280;65656;51.130;13.658;2024-01-11T13:58:34;100366.16;;;-2.33;72.81
76732;BME280;65656;51.130;13.658;2024-01-11T14:02:38;100355.41;;;-2.33;72.28
76732;BME280;65656;51.130;13.658;2024-01-11T14:06:40;100358.28;;;-2.63;74.07
76732;BME280;65656;51.130;13.658;2024-01-11T14:10:43;100348.94;;;-2.98;75.01
76732;BME280;65656;51.130;13.658;2024-01-11T14:14:45;100371.38;;;-2.99;74.50
76732;BME280;65656;51.130;13.658;2024-01-11T14:18:48;100359.38;;;-3.14;76.28
76732;BME280;65656;51.130;13.658;2024-01-11T14:22:51;100374.31;;;-3.21;74.86
76732;BME280;65656;51.130;13.658;2024-01-11T14:26:53;100361.06;;;-3.23;74.64
76732;BME280;65656;51.130;13.658;2024-01-11T14:30:55;100360.75;;;-3.29;73.69
76732;BME280;65656;51.130;13.658;2024-01-11T14:34:59;100365.72;;;-3.34;73.95
76732;BME280;65656;51.130;13.658;2024-01-11T14:39:01;100366.13;;;-3.29;74.62
76732;BME280;65656;51.130;13.658;2024-01-11T14:43:04;100373.03;;;-3.37;75.93
76732;BME280;65656;51.130;13.658;2024-01-11T14:47:06;100369.78;;;-3.30;74.58
76732;BME280;65656;51.130;13.658;2024-01-11T14:51:10;100380.50;;;-3.40;75.71
76732;BME280;65656;51.130;13.658;2024-01-11T14:55:12;100369.19;;;-3.44;75.75
76732;BME280;65656;51.130;13.658;2024-01-11T14:59:15;100361.56;;;-3.58;77.22
76732;BME280;65656;51.130;13.658;2024-01-11T15:03:18;100370.00;;;-3.62;78.45
76732;BME280;65656;51.130;13.658;2024-01-11T15:07:22;100368.28;;;-3.73;79.65
76732;BME280;65656;51.130;13.658;2024-01-11T15:11:24;100353.91;;;-3.72;80.30
76732;BME280;65656;51.130;13.658;2024-01-11T15:15:26;100365.41;;;-3.81;80.90
76732;BME280;65656;51.130;13.658;2024-01-11T15:19:29;100354.34;;;-3.98;82.43
76732;BME280;65656;51.130;13.658;2024-01-11T15:23:32;100354.91;;;-4.04;83.04
76732;BME280;65656;51.130;13.658;2024-01-11T15:27:34;100357.66;;;-4.15;84.35
76732;BME280;65656;51.130;13.658;2024-01-11T15:31:36;100360.66;;;-4.29;85.79
76732;BME280;65656;51.130;13.658;2024-01-11T15:35:38;100365.03;;;-4.28;86.25
76732;BME280;65656;51.130;13.658;2024-01-11T15:39:41;100361.47;;;-4.38;86.65
76732;BME280;65656;51.130;13.658;2024-01-11T15:43:43;100367.59;;;-4.47;87.72
76732;BME280;65656;51.130;13.658;2024-01-11T15:47:44;100371.59;;;-4.42;88.41
76732;BME280;65656;51.130;13.658;2024-01-11T15:51:46;100376.34;;;-4.45;88.37
76732;BME280;65656;51.130;13.658;2024-01-11T15:55:49;100378.28;;;-4.47;89.22
76732;BME280;65656;51.130;13.658;2024-01-11T15:59:50;100366.16;;;-4.52;89.34
76732;BME280;65656;51.130;13.658;2024-01-11T16:03:52;100371.78;;;-4.55;90.33
76732;BME280;65656;51.130;13.658;2024-01-11T16:07:55;100369.41;;;-4.69;91.07
76732;BME280;65656;51.130;13.658;2024-01-11T16:11:58;100361.84;;;-4.64;90.88
76732;BME280;65656;51.130;13.658;2024-01-11T16:16:05;100366.50;;;-4.66;91.60
76732;BME280;65656;51.130;13.658;2024-01-11T16:20:08;100364.56;;;-4.75;92.05
76732;BME280;65656;51.130;13.658;2024-01-11T16:24:10;100397.19;;;-4.81;92.85
76732;BME280;65656;51.130;13.658;2024-01-11T16:28:13;100415.69;;;-4.89;93.83
76732;BME280;65656;51.130;13.658;2024-01-11T16:32:15;100426.84;;;-4.84;94.05
76732;BME280;65656;51.130;13.658;2024-01-11T16:36:16;100438.28;;;-4.82;94.05
76732;BME280;65656;51.130;13.658;2024-01-11T16:40:18;100450.81;;;-4.94;94.76
76732;BME280;65656;51.130;13.658;2024-01-11T16:44:21;100460.16;;;-4.88;95.56
76732;BME280;65656;51.130;13.658;2024-01-11T16:48:25;100462.34;;;-4.93;96.55
76732;BME280;65656;51.130;13.658;2024-01-11T16:52:26;100448.97;;;-4.82;97.00
76732;BME280;65656;51.130;13.658;2024-01-11T16:56:28;100453.34;;;-4.92;96.97
76732;BME280;65656;51.130;13.658;2024-01-11T17:00:31;100455.56;;;-4.97;97.47
76732;BME280;65656;51.130;13.658;2024-01-11T17:04:32;100449.38;;;-4.98;98.68
76732;BME280;65656;51.130;13.658;2024-01-11T17:08:34;100466.25;;;-4.97;98.83
76732;BME280;65656;51.130;13.658;2024-01-11T17:12:36;100461.13;;;-4.89;98.46
76732;BME280;65656;51.130;13.658;2024-01-11T17:16:39;100461.13;;;-5.00;100.00
76732;BME280;65656;51.130;13.658;2024-01-11T17:20:40;100465.63;;;-4.90;100.00
76732;BME280;65656;51.130;13.658;2024-01-11T17:24:42;100469.19;;;-5.23;100.00
76732;BME280;65656;51.130;13.658;2024-01-11T17:28:44;100474.06;;;-5.28;100.00
76732;BME280;65656;51.130;13.658;2024-01-11T17:32:46;100478.22;;;-5.35;100.00
76732;BME280;65656;51.130;13.658;2024-01-11T17:36:48;100465.53;;;-5.11;100.00
76732;BME280;65656;51.130;13.658;2024-01-11T17:40:50;100476.22;;;-5.11;100.00
76732;BME280;65656;51.130;13.658;2024-01-11T17:44:51;100489.09;;;-5.16;100.00
76732;BME280;65656;51.130;13.658;2024-01-11T17:48:54;100486.56;;;-5.17;100.00
76732;BME280;65656;51.130;13.658;2024-01-11T17:52:56;100492.63;;;-5.04;100.00
76732;BME280;65656;51.130;13.658;2024-01-11T17:56:58;100503.19;;;-5.14;100.00
76732;BME280;65656;51.130;13.658;2024-01-11T18:00:59;100503.06;;;-5.01;100.00
76732;BME280;65656;51.130;13.658;2024-01-11T18:05:03;100511.56;;;-4.96;100.00
76732;BME280;65656;51.130;13.658;2024-01-11T18:09:05;100513.84;;;-4.80;100.00
76732;BME280;65656;51.130;13.658;2024-01-11T18:13:07;100509.97;;;-4.87;100.00
76732;BME280;65656;51.130;13.658;2024-01-11T18:17:08;100513.22;;;-4.84;100.00
76732;BME280;65656;51.130;13.658;2024-01-11T18:21:11;100510.91;;;-4.77;100.00
76732;BME280;65656;51.130;13.658;2024-01-11T18:25:13;100506.66;;;-4.80;100.00
76732;BME280;65656;51.130;13.658;2024-01-11T18:29:15;100503.50;;;-4.85;100.00
76732;BME280;65656;51.130;13.658;2024-01-11T18:33:17;100509.47;;;-4.81;100.00
76732;BME280;65656;51.130;13.658;2024-01-11T18:37:20;100512.38;;;-4.73;100.00
76732;BME280;65656;51.130;13.658;2024-01-11T18:41:21;100518.66;;;-4.63;100.00
76732;BME280;65656;51.130;13.658;2024-01-11T18:45:23;100523.00;;;-4.51;100.00
76732;BME280;65656;51.130;13.658;2024-01-11T18:49:27;100525.25;;;-4.67;100.00
76732;BME280;65656;51.130;13.658;2024-01-11T18:53:30;100517.72;;;-4.73;100.00
76732;BME280;65656;51.130;13.658;2024-01-11T18:57:32;100520.63;;;-4.76;100.00
76732;BME280;65656;51.130;13.658;2024-01-11T19:01:34;100526.38;;;-4.49;100.00
76732;BME280;65656;51.130;13.658;2024-01-11T19:05:36;100527.50;;;-4.51;100.00
76732;BME280;65656;51.130;13.658;2024-01-11T19:09:39;100525.94;;;-4.65;100.00
76732;BME280;65656;51.130;13.658;2024-01-11T19:13:42;100526.53;;;-4.29;100.00
76732;BME280;65656;51.130;13.658;2024-01-11T19:17:44;100533.94;;;-4.54;100.00
76732;BME280;65656;51.130;13.658;2024-01-11T19:21:46;100532.94;;;-4.41;100.00
76732;BME280;65656;51.130;13.658;2024-01-11T19:25:50;100525.81;;;-4.31;100.00
76732;BME280;65656;51.130;13.658;2024-01-11T19:29:53;100534.03;;;-4.12;100.00
76732;BME280;65656;51.130;13.658;2024-01-11T19:33:56;100539.97;;;-4.40;100.00
76732;BME280;65656;51.130;13.658;2024-01-11T19:38:02;100524.28;;;-4.34;100.00
76732;BME280;65656;51.130;13.658;2024-01-11T19:42:06;100521.97;;;-4.38;100.00
76732;BME280;65656;51.130;13.658;2024-01-11T19:46:15;100516.81;;;-4.51;100.00
76732;BME280;65656;51.130;13.658;2024-01-11T19:50:18;100508.16;;;-4.43;100.00
76732;BME280;65656;51.130;13.658;2024-01-11T19:54:22;100520.34;;;-4.30;100.00
76732;BME280;65656;51.130;13.658;2024-01-11T19:58:25;100515.59;;;-4.26;100.00
76732;BME280;65656;51.130;13.658;2024-01-11T20:02:28;100523.00;;;-4.18;100.00
76732;BME280;65656;51.130;13.658;2024-01-11T20:06:30;100509.88;;;-4.01;100.00
76732;BME280;65656;51.130;13.658;2024-01-11T20:10:32;100509.59;;;-3.98;100.00
76732;BME280;65656;51.130;13.658;2024-01-11T20:14:36;100515.50;;;-4.04;100.00
76732;BME280;65656;51.130;13.658;2024-01-11T20:18:38;100508.66;;;-3.97;100.00
76732;BME280;65656;51.130;13.658;2024-01-11T20:22:41;100501.13;;;-4.03;100.00
76732;BME280;65656;51.130;13.658;2024-01-11T20:26:44;100503.66;;;-4.01;100.00
76732;BME280;65656;51.130;13.658;2024-01-11T20:30:47;100498.31;;;-4.01;100.00
76732;BME280;65656;51.130;13.658;2024-01-11T20:34:50;100507.13;;;-3.89;100.00
76732;BME280;65656;51.130;13.658;2024-01-11T20:38:53;100502.22;;;-3.84;100.00
76732;BME280;65656;51.130;13.658;2024-01-11T20:42:56;100509.28;;;-3.83;100.00